DW8482 Tortoreto Alto IT current weather conditions

sailwx.info

Wind from 049

Air temperature 23.3° C
Dewpoint 14.1° C

Last reported at 2015-Jul-03 03:42 UTC.
Time now 2015-Jul-03 06:14 UTC

Location: N 42°48' E 013°54'.
View on Google Maps.

See reports from other nearby stations

  
Tides and Currents Weather Stations Pressure Air Temp Water Temp Dewpoint Dewpoint Depression Visibility Wind Speed Wind Dir Waves Ship Positions
date/time (UTC)wind fromknots sea level pressurealtimeterstation pressurevisibilityair tempwater tempwave heightnotes
2015-Jul-03 03:42 049 23.3
2015-Jul-03 03:37 049 23.3
2015-Jul-03 03:32 049 23.3
2015-Jul-03 03:27 049 23.3
2015-Jul-03 03:22 252 23.3
2015-Jul-03 03:17 252 23.3
2015-Jul-03 03:12 252 2 gusting 3 23.3
2015-Jul-03 03:07 252 1 gusting 3 23.3
2015-Jul-03 03:02 014 23.3
2015-Jul-03 02:57 014 23.3
2015-Jul-03 02:52 014 23.3
2015-Jul-03 02:47 014 23.3
2015-Jul-03 02:42 014 23.3
2015-Jul-03 02:37 014 23.3
2015-Jul-03 02:32 014 23.3
2015-Jul-03 02:27 014 23.3
2015-Jul-03 02:22 014 23.3
2015-Jul-03 02:02 014 23.3
2015-Jul-03 01:57 009 2 gusting 3 23.3
2015-Jul-03 01:52 101 23.9
2015-Jul-03 01:27 336 23.9
2015-Jul-03 01:22 333 23.9
2015-Jul-03 01:02 304 24.4
2015-Jul-03 00:57 304 24.4
2015-Jul-03 00:37 336 24.4
2015-Jul-03 00:27 348 24.4
2015-Jul-03 00:17 24.4
2015-Jul-03 00:12 263 24.4
2015-Jul-02 23:52 263 25.0
2015-Jul-02 23:42 263 24.4
2015-Jul-02 23:37 263 24.4
2015-Jul-02 23:27 263 25.0
2015-Jul-02 23:22 263 25.0
2015-Jul-02 23:17 263 25.0
2015-Jul-02 23:12 263 25.6
2015-Jul-02 23:02 263 2 gusting 3 26.1
2015-Jul-02 22:57 263 2 gusting 3 26.1
2015-Jul-02 22:52 263 2 gusting 3 25.6
2015-Jul-02 22:47 263 3 gusting 4 25.6
2015-Jul-02 22:42 263 3 gusting 4 25.6
2015-Jul-02 22:37 256 2 gusting 4 25.6
2015-Jul-02 22:32 248 4 gusting 4 25.0
2015-Jul-02 22:17 257 3 gusting 5 25.0
2015-Jul-02 21:57 248 4 gusting 4 25.0
2015-Jul-02 21:37 252 4 gusting 5 25.6
2015-Jul-02 21:32 246 4 gusting 5 25.6
2015-Jul-02 21:27 244 4 gusting 5 25.6
2015-Jul-02 21:12 243 4 gusting 5 25.6
2015-Jul-02 21:07 248 3 gusting 6 25.6
2015-Jul-02 21:02 244 5 gusting 6 25.6
2015-Jul-02 20:57 240 4 gusting 6 25.6
2015-Jul-02 20:52 240 3 gusting 5 26.1
2015-Jul-02 20:37 242 2 gusting 4 26.1
2015-Jul-02 20:32 240 3 gusting 4 26.1
2015-Jul-02 20:27 238 26.1
2015-Jul-02 20:22 244 3 gusting 4 26.7
2015-Jul-02 20:17 212 3 gusting 4 26.7
2015-Jul-02 20:12 242 2 gusting 4 26.7
2015-Jul-02 20:07 242 2 gusting 4 26.7
2015-Jul-02 20:02 225 2 gusting 4 26.7
2015-Jul-02 19:57 228 1 gusting 5 26.7
2015-Jul-02 19:52 217 2 gusting 5 26.7
2015-Jul-02 19:47 213 4 gusting 5 26.7
2015-Jul-02 19:42 210 2 gusting 5 26.7
2015-Jul-02 19:37 219 2 gusting 5 26.7
2015-Jul-02 19:32 227 2 gusting 4 26.7
2015-Jul-02 19:22 226 1 gusting 4 26.7
2015-Jul-02 19:17 267 26.1
2015-Jul-02 19:12 201 26.1
2015-Jul-02 18:57 215 26.1
2015-Jul-02 18:52 227 26.1
2015-Jul-02 18:47 213 4 gusting 4 25.6
2015-Jul-02 18:42 211 3 gusting 4 26.1
2015-Jul-02 18:37 199 4 gusting 4 26.1
2015-Jul-02 18:32 196 2 gusting 5 26.1
2015-Jul-02 18:12 190 2 gusting 3 26.7
2015-Jul-02 18:07 191 1 gusting 3 27.2
2015-Jul-02 18:02 179 1 gusting 2 27.2
2015-Jul-02 17:37 173 27.2
2015-Jul-02 17:32 173 27.2
2015-Jul-02 17:27 173 26.7
2015-Jul-02 17:22 173 26.7
2015-Jul-02 17:17 185 26.7
2015-Jul-02 17:12 130 26.7
2015-Jul-02 17:07 129 26.7
2015-Jul-02 16:57 117 0 gusting 1 27.2
2015-Jul-02 16:52 117 27.2
2015-Jul-02 16:47 117 1 gusting 4 27.2
2015-Jul-02 16:42 130 27.2
2015-Jul-02 16:27 101 26.7
2015-Jul-02 16:22 095 26.7
2015-Jul-02 16:17 127 27.2
2015-Jul-02 16:12 105 2 gusting 4 27.2
2015-Jul-02 16:07 116 3 gusting 6 26.7
2015-Jul-02 16:02 106 2 gusting 6 27.2
2015-Jul-02 15:47 082 26.7
2015-Jul-02 15:42 057 26.7
2015-Jul-02 15:37 066 26.7
2015-Jul-02 15:32 083 1 gusting 6 26.7
2015-Jul-02 15:22 098 26.7
2015-Jul-02 15:17 080 26.7
2015-Jul-02 15:12 094 1 gusting 6 26.7
2015-Jul-02 15:07 065 3 gusting 7 26.7
2015-Jul-02 15:02 082 4 gusting 7 26.7
2015-Jul-02 14:57 073 6 gusting 8 26.7
2015-Jul-02 14:52 048 2 gusting 6 26.7
2015-Jul-02 14:47 086 2 gusting 7 26.7
2015-Jul-02 14:42 056 6 gusting 8 26.7
2015-Jul-02 14:37 076 6 gusting 8 26.7
2015-Jul-02 14:12 040 5 gusting 8 27.2
2015-Jul-02 14:07 038 6 gusting 10 26.7
2015-Jul-02 14:02 070 6 gusting 7 27.2
2015-Jul-02 13:57 083 6 gusting 8 27.2
2015-Jul-02 13:52 078 3 gusting 9 27.2
2015-Jul-02 13:42 080 6 gusting 7 27.2
2015-Jul-02 13:37 114 6 gusting 9 27.2
2015-Jul-02 13:22 058 7 gusting 7 27.8
2015-Jul-02 13:12 084 6 gusting 10 27.2
2015-Jul-02 13:02 046 8 gusting 9 27.2
2015-Jul-02 12:57 052 5 gusting 8 27.2
2015-Jul-02 12:52 053 4 gusting 8 27.2
2015-Jul-02 12:47 036 6 gusting 8 27.2
2015-Jul-02 12:42 053 4 gusting 8 27.2
2015-Jul-02 12:37 046 5 gusting 10 27.8
2015-Jul-02 12:32 030 5 gusting 8 27.2
2015-Jul-02 12:22 076 6 gusting 10 27.8
2015-Jul-02 12:17 049 6 gusting 10 27.8
2015-Jul-02 12:12 042 6 gusting 7 27.2
2015-Jul-02 12:07 074 6 gusting 8 27.8
2015-Jul-02 11:52 053 5 gusting 6 27.8
2015-Jul-02 11:47 046 4 gusting 6 27.2
2015-Jul-02 11:42 078 3 gusting 6 27.2
2015-Jul-02 11:32 059 7 gusting 7 27.8
2015-Jul-02 11:27 056 4 gusting 6 27.8
2015-Jul-02 11:22 071 4 gusting 6 27.8
2015-Jul-02 11:12 049 6 gusting 7 27.8
2015-Jul-02 11:07 056 4 gusting 6 28.3
2015-Jul-02 10:57 049 2 gusting 6 27.8
2015-Jul-02 10:42 043 2 gusting 6 27.8
2015-Jul-02 10:37 051 3 gusting 6 27.8
2015-Jul-02 10:32 054 2 gusting 6 27.2
2015-Jul-02 10:27 048 3 gusting 5 26.7
2015-Jul-02 10:22 054 4 gusting 6 27.2
2015-Jul-02 10:17 053 4 gusting 6 27.2
2015-Jul-02 10:02 051 2 gusting 6 27.2
2015-Jul-02 09:47 052 2 gusting 6 27.2
2015-Jul-02 09:42 065 3 gusting 6 27.2
2015-Jul-02 09:27 042 3 gusting 6 27.2
2015-Jul-02 09:22 049 4 gusting 6 27.8
2015-Jul-02 09:17 053 4 gusting 6 27.2
2015-Jul-02 04:32 015 1 gusting 4 22.8
2015-Jul-02 04:17 21.7
2015-Jul-02 04:12 333 2 gusting 5 21.7
2015-Jul-02 04:07 333 1 gusting 6 21.7
2015-Jul-02 03:57 21.7
2015-Jul-02 03:42 247 22.2
2015-Jul-02 03:32 247 22.2
2015-Jul-02 03:27 247 22.8
2015-Jul-02 03:17 247 22.2
2015-Jul-02 03:12 247 22.2
2015-Jul-02 02:42 247 22.2
2015-Jul-02 02:27 247 2 gusting 3 22.2
2015-Jul-02 02:22 247 3 gusting 3 22.2
2015-Jul-02 02:17 247 2 gusting 3 22.2
2015-Jul-02 01:57 247 22.2
2015-Jul-02 01:52 247 22.2
2015-Jul-02 01:47 247 22.8
2015-Jul-02 01:37 247 22.8
2015-Jul-02 01:32 247 22.8
2015-Jul-02 01:22 247 23.3
2015-Jul-02 01:17 247 23.3
2015-Jul-02 01:02 247 23.3
2015-Jul-02 00:57 247 22.8
2015-Jul-02 00:52 247 22.8
2015-Jul-02 00:42 247 22.8
2015-Jul-02 00:37 247 22.8
2015-Jul-02 00:32 247 23.3
2015-Jul-02 00:22 250 23.3
2015-Jul-02 00:17 250 23.3
2015-Jul-02 00:12 250 23.3
2015-Jul-02 00:07 250 23.3
2015-Jul-01 23:57 250 23.9
2015-Jul-01 23:52 244 2 gusting 4 23.9
2015-Jul-01 23:47 249 3 gusting 4 23.9
2015-Jul-01 23:42 239 3 gusting 4 23.9
2015-Jul-01 23:32 232 4 gusting 6 24.4
2015-Jul-01 23:27 245 4 gusting 6 24.4
2015-Jul-01 23:22 248 5 gusting 6 24.4
2015-Jul-01 23:12 236 3 gusting 6 25.0
2015-Jul-01 23:07 248 3 gusting 6 24.4
2015-Jul-01 23:02 248 2 gusting 5 24.4
2015-Jul-01 22:57 254 2 gusting 5 23.9
2015-Jul-01 22:52 252 2 gusting 6 23.9
2015-Jul-01 22:47 232 4 gusting 4 23.3
2015-Jul-01 22:37 259 0 gusting 4 23.9
2015-Jul-01 22:32 240 1 gusting 2 24.4
2015-Jul-01 22:27 242 2 gusting 5 24.4
2015-Jul-01 22:07 229 3 gusting 4 24.4
2015-Jul-01 22:02 236 3 gusting 5 24.4
2015-Jul-01 21:57 235 3 gusting 6 24.4
2015-Jul-01 21:47 244 4 gusting 6 24.4
2015-Jul-01 21:37 244 2 gusting 5 24.4
2015-Jul-01 21:32 226 3 gusting 6 24.4
2015-Jul-01 21:27 216 2 gusting 6 24.4
2015-Jul-01 21:17 241 6 gusting 6 24.4
2015-Jul-01 21:12 230 3 gusting 6 24.4
2015-Jul-01 20:52 234 2 gusting 4 24.4
2015-Jul-01 20:47 249 1 gusting 3 24.4
2015-Jul-01 20:42 238 1 gusting 3 24.4
2015-Jul-01 20:37 250 0 gusting 3 24.4
2015-Jul-01 20:32 227 3 gusting 5 24.4
2015-Jul-01 20:27 237 2 gusting 3 24.4
2015-Jul-01 20:22 237 2 gusting 3 24.4
2015-Jul-01 20:12 244 2 gusting 3 25.0
2015-Jul-01 20:02 240 2 gusting 2 25.0
2015-Jul-01 19:57 234 0 gusting 1 25.0
2015-Jul-01 19:27 258 0 gusting 4 25.0
2015-Jul-01 19:22 277 25.0
2015-Jul-01 19:12 293 25.0
2015-Jul-01 19:07 252 0 gusting 1 25.0
2015-Jul-01 19:02 269 25.0
2015-Jul-01 18:52 231 25.0
2015-Jul-01 18:47 201 0 gusting 2 25.0
2015-Jul-01 18:42 217 2 gusting 2 25.0
2015-Jul-01 18:37 219 25.0
2015-Jul-01 18:32 217 1 gusting 3 25.0
2015-Jul-01 18:27 222 0 gusting 3 25.0
2015-Jul-01 18:22 244 2 gusting 3 25.6
2015-Jul-01 18:17 195 1 gusting 3 25.6
2015-Jul-01 18:07 187 1 gusting 3 26.1
2015-Jul-01 17:52 199 26.7
2015-Jul-01 17:47 208 0 gusting 1 26.7
2015-Jul-01 17:37 188 26.7
2015-Jul-01 17:32 211 0 gusting 3 26.7
2015-Jul-01 17:22 135 26.1
2015-Jul-01 17:17 135 26.1
2015-Jul-01 16:57 109 26.1
2015-Jul-01 16:52 098 1 gusting 2 26.1
2015-Jul-01 16:42 119 25.6
2015-Jul-01 16:37 107 25.6
2015-Jul-01 16:32 132 2 gusting 4 25.6
2015-Jul-01 16:27 107 3 gusting 5 25.6
2015-Jul-01 16:17 094 25.6
2015-Jul-01 16:12 102 2 gusting 5 25.6
2015-Jul-01 16:07 121 3 gusting 6 25.6
2015-Jul-01 15:57 113 2 gusting 6 25.6
2015-Jul-01 15:37 080 6 gusting 6 25.6
2015-Jul-01 15:22 078 1 gusting 7 25.6
2015-Jul-01 15:17 076 3 gusting 5 26.1
2015-Jul-01 15:07 061 4 gusting 6 25.6
2015-Jul-01 15:02 088 25.6
2015-Jul-01 14:57 070 4 gusting 6 25.6
2015-Jul-01 14:52 121 1 gusting 6 25.6
2015-Jul-01 14:47 073 3 gusting 6 25.6
2015-Jul-01 14:42 057 6 gusting 7 25.6
2015-Jul-01 14:27 061 4 gusting 6 26.1
2015-Jul-01 14:22 076 6 gusting 7 25.6
2015-Jul-01 14:17 079 5 gusting 7 25.6
2015-Jul-01 14:12 075 6 gusting 8 25.6
2015-Jul-01 14:07 067 6 gusting 6 25.6
2015-Jul-01 14:02 064 6 gusting 7 25.6
2015-Jul-01 13:57 052 4 gusting 8 25.6
2015-Jul-01 13:47 047 6 gusting 6 26.1
2015-Jul-01 13:42 079 5 gusting 8 25.6
2015-Jul-01 13:37 079 6 gusting 8 26.1
2015-Jul-01 13:32 084 6 gusting 8 26.1
2015-Jul-01 13:22 049 6 gusting 8 26.7
2015-Jul-01 13:17 049 4 gusting 9 26.7
2015-Jul-01 13:12 068 3 gusting 8 26.7
2015-Jul-01 13:02 044 2 gusting 7 27.8
2015-Jul-01 12:57 048 5 gusting 6 27.2
2015-Jul-01 12:52 047 3 gusting 7 27.2
2015-Jul-01 12:42 040 5 gusting 6 26.7
2015-Jul-01 12:27 053 5 gusting 6 27.2
2015-Jul-01 12:22 044 1 gusting 6 26.7
2015-Jul-01 12:17 041 2 gusting 6 26.1
2015-Jul-01 12:07 063 6 gusting 7 26.7
2015-Jul-01 12:02 050 4 gusting 9 27.2
2015-Jul-01 11:57 061 7 gusting 8 26.7
2015-Jul-01 11:52 066 6 gusting 8 26.1
2015-Jul-01 11:47 076 3 gusting 6 26.1
2015-Jul-01 11:42 059 6 gusting 6 26.1
2015-Jul-01 11:32 065 6 gusting 8 26.7
2015-Jul-01 11:17 057 6 gusting 8 26.7
2015-Jul-01 11:12 046 6 gusting 9 26.7
2015-Jul-01 11:07 048 7 gusting 9 26.1
2015-Jul-01 10:57 082 5 gusting 8 26.7
2015-Jul-01 10:52 084 5 gusting 7 26.1
2015-Jul-01 10:42 051 5 gusting 8 26.7
2015-Jul-01 10:32 050 4 gusting 7 26.7
2015-Jul-01 10:27 040 6 gusting 7 26.7
2015-Jul-01 10:22 028 5 gusting 7 26.1
2015-Jul-01 10:17 065 6 gusting 6 26.1
2015-Jul-01 10:07 005 7 gusting 7 26.1
2015-Jul-01 09:37 059 4 gusting 7 26.1
2015-Jul-01 09:32 065 3 gusting 6 26.1
2015-Jul-01 09:27 048 2 gusting 6 26.7
2015-Jul-01 09:12 076 1 gusting 6 26.1
2015-Jul-01 08:57 041 6 gusting 8 26.1
2015-Jul-01 08:52 056 2 gusting 9 26.1
2015-Jul-01 08:47 063 6 gusting 8 26.1
2015-Jul-01 08:42 050 5 gusting 8 26.7
2015-Jul-01 08:32 044 5 gusting 8 26.1
2015-Jul-01 08:27 053 5 gusting 6 26.1
2015-Jul-01 08:22 040 5 gusting 8 26.1
2015-Jul-01 08:17 062 2 gusting 7 25.6
2015-Jul-01 08:12 063 3 gusting 6 25.6
2015-Jul-01 08:02 049 4 gusting 6 26.7
2015-Jul-01 07:57 065 1 gusting 7 26.1
2015-Jul-01 07:52 032 26.7
2015-Jul-01 07:37 245 25.6
2015-Jul-01 07:32 260 25.6
2015-Jul-01 07:27 254 25.0
2015-Jul-01 07:22 254 25.0
2015-Jul-01 07:12 256 24.4
2015-Jul-01 06:57 293 23.9
2015-Jul-01 06:52 271 23.9
2015-Jul-01 06:42 269 23.9
2015-Jul-01 06:37 269 23.9
2015-Jul-01 06:32 269 0 gusting 2 23.3
2015-Jul-01 06:27 269 23.3
2015-Jul-01 06:22 269 1 gusting 1 23.3
2015-Jul-01 06:17 269 23.3
2015-Jul-01 06:12 269 23.3
2015-Jul-01 06:07 273 23.3